News

Pass your ICAO Aviation English Exam with us!

Flying Academy invites you to the ICAO English Aviation Exam that will be held in:

 

Brno - Turany, airport 10. 1. 2015

Prague - Letnany, airport  21. 1. 2015 

 

Prior to the exam you can attend 4 hours long „refresh course“ of Aviation English, where we will prepare you for the exam.

Each pilot must have at least a minimum level of English knowledge - ICAO level 4.

continue reading >>

Visit Flying Academy and we will reimburse your trip to the Czech Republic!

Flying Academy is now offering an opportunity for all future pilots to come and visit our bases from the Czech Republic for free!

If you decide to see our flight training centers from Prague or Brno, we will pay back the cost of the trip, in the maximum amount of 500 Euros. So feel free to pay us a visit and see with your own eyes what we have to offer and why we are the best choice for you.

During your time here, you will visit the training facilities, talk to the Flight Instructors and students, visit the hangar and the fleet, visit the accommodation facilities and even take an introductory flight.

continue reading >>

EASA Integrated ATPL - registration now open

Flying Academy, one of the biggest flight schools in Europe, has opened the registration for the Integrated ATPL course starting January 19th, 2015.

We will take you from no flight experience to the level of being an EASA CPL holder with MEP IR, MCC and JOC in just 14 months. 

Advantages of Flying Academy’s Integrated ATPL(A) program:

  • From no experienced to licensed Commercial Pilot with frozen ATPL(A), MCC and JOC (B737NG or A320) in 14 months.
  • Intensive program with 750 hours of theoretical preparation. Highly experience lectures.
  • Training on EFIS aircraft (Cessna 172SP Garmin 1000)
  • MCC & JOC included (Boeing 737 FFS or Airbus A320 FFS)
  • Airline screening preparation included at the end of the course (Aviation HR, Aviation Psychologists & Technical interview prep)
  • No additional or hidden costs!

continue reading >>

archive

Latest blog post

10 advantages for using the iPad in the cockpit

Flying Academy – the flight training organization managed by airline pilots – has started 2 months ago to equip its trainees with iPads. The Academy took the lead to revolutionize the cockpit and pilot training, realizing the vision of paperless flying and becoming the first Czech FTO to fly with iPad EFBs. The process will make learning to fly much easier, more efficient and accurate, useful for private pilots and important for future commercial pilots.

After having the iPad in trials, Flying Academy’s flight instructors have concluded that it’s extremely useful in the cockpit because it’s:

1. Fast – extremely short response time;

2. Reliable – as the iOS has very limited crashes;

3. Easy to use – intuitive menu and apps.

continue reading >>

archive

Latest weather

LKKV

LKKV 210300Z 26011KT 230V290 9999 BKN020 01/M02 Q1022

LKPR

LKPR 210300Z 24014KT CAVOK 02/M02 Q1021 NOSIG

LKTB

LKTB 210300Z 29012KT 9999 SCT028 03/M00 Q1020 NOSIG



Briefing tools

METAR & TAF Europe

METAR & TAF CZ

Weather Radar CZ

AIP Czech Republic

Integrated ATPL(A) with 750 hours of ground, MCC, JOC on B737NG or A320 FFS + interview preparation course Register now!